Time;durP1;ratioP1;P1;durP2;ratioP2;P2;SDS_P1;SDS_P2;PMS_P1;PMS_P2;Temp;Humidity;BMP_temperature;BMP_pressure;BME280_temperature;BME280_humidity;BME280_pressure;Samples;Min_cycle;Max_cycle;Signal;HPM_P1;HPM_P2
2023/09/29 00:02:05;;;;;;;;;;;18.20;99.90;;;;;;5058584;28;19909;-74
2023/09/29 00:04:30;;;;;;;;;;;18.20;99.90;;;;;;5059363;28;19909;-73
2023/09/29 00:06:56;;;;;;;;;;;18.20;99.90;;;;;;5059250;28;19913;-74
2023/09/29 00:09:22;;;;;;;;;;;18.10;99.90;;;;;;5059106;28;19916;-74
2023/09/29 00:11:48;;;;;;;;;;;18.10;99.90;;;;;;5059428;28;19915;-74
2023/09/29 00:14:13;;;;;;;;;;;18.10;99.90;;;;;;5059142;28;20834;-74
2023/09/29 00:16:39;;;;;;;;;;;18.10;99.90;;;;;;5058957;28;19919;-74
2023/09/29 00:19:05;;;;;;;;;;;18.00;99.90;;;;;;5091453;28;19915;-74
2023/09/29 00:21:30;;;;;;;;;;;17.90;99.90;;;;;;5091210;28;20384;-73
2023/09/29 00:23:56;;;;;;;;;;;17.90;99.90;;;;;;5058911;28;19916;-73
2023/09/29 00:26:21;;;;;;;;;;;17.90;99.90;;;;;;5058683;28;19939;-73
2023/09/29 00:28:47;;;;;;;;;;;17.80;99.90;;;;;;5057684;28;19924;-73
2023/09/29 00:31:15;;;;;;;;;;;17.80;99.90;;;;;;5058832;28;19979;-73
2023/09/29 00:33:41;;;;;;;;;;;17.80;99.90;;;;;;5058856;28;19909;-74
2023/09/29 00:36:07;;;;;;;;;;;17.70;99.90;;;;;;5058659;28;19915;-73
2023/09/29 00:38:33;;;;;;;;;;;17.70;99.90;;;;;;5058330;28;20495;-74
2023/09/29 00:40:59;;;;;;;;;;;17.70;99.90;;;;;;5074027;28;19944;-74
2023/09/29 00:43:27;;;;;;;;;;;17.70;99.90;;;;;;5058562;28;19909;-73
2023/09/29 00:45:53;;;;;;;;;;;17.70;99.90;;;;;;5058646;28;19920;-73
2023/09/29 00:48:22;;;;;;;;;;;17.60;99.90;;;;;;5090358;28;19909;-73
2023/09/29 00:50:48;;;;;;;;;;;17.60;99.90;;;;;;5057040;28;20400;-73
2023/09/29 00:53:14;;;;;;;;;;;17.60;99.90;;;;;;5056899;28;20004;-72
2023/09/29 00:55:45;;;;;;;;;;;17.60;99.90;;;;;;5058405;28;19909;-73
2023/09/29 00:58:12;;;;;;;;;;;17.50;99.90;;;;;;5058496;28;19959;-73
2023/09/29 01:00:40;;;;;;;;;;;17.50;99.90;;;;;;5056983;28;19912;-73
2023/09/29 01:03:11;;;;;;;;;;;17.50;99.90;;;;;;5056493;28;19908;-73
2023/09/29 01:05:44;;;;;;;;;;;17.50;99.90;;;;;;5057971;28;19909;-73
2023/09/29 01:08:12;;;;;;;;;;;17.50;99.90;;;;;;5058101;28;20273;-73
2023/09/29 01:10:38;;;;;;;;;;;17.50;99.90;;;;;;5056622;28;19909;-73
2023/09/29 01:13:04;;;;;;;;;;;17.50;99.90;;;;;;5057957;28;20412;-73
2023/09/29 01:15:31;;;;;;;;;;;17.50;99.90;;;;;;5057986;28;19909;-73
2023/09/29 01:17:57;;;;;;;;;;;17.50;99.90;;;;;;5056690;28;19959;-74
2023/09/29 01:20:29;;;;;;;;;;;17.50;99.90;;;;;;5057582;28;19909;-74
2023/09/29 01:22:55;;;;;;;;;;;17.40;99.90;;;;;;5057876;28;20496;-73
2023/09/29 01:25:23;;;;;;;;;;;17.40;99.90;;;;;;5056096;28;19959;-72
2023/09/29 01:27:49;;;;;;;;;;;17.30;99.90;;;;;;5089957;28;19925;-73
2023/09/29 01:30:18;;;;;;;;;;;17.30;99.90;;;;;;5057523;28;19920;-74
2023/09/29 01:32:46;;;;;;;;;;;17.30;99.90;;;;;;5057923;28;19955;-73
2023/09/29 01:35:11;;;;;;;;;;;17.30;99.90;;;;;;5089512;28;19952;-73
2023/09/29 01:37:38;;;;;;;;;;;17.30;99.90;;;;;;5057461;28;19913;-73
2023/09/29 01:40:06;;;;;;;;;;;17.30;99.90;;;;;;5057541;28;20777;-73
2023/09/29 01:42:32;;;;;;;;;;;17.20;99.90;;;;;;5057544;28;19913;-73
2023/09/29 01:44:57;;;;;;;;;;;17.20;99.90;;;;;;5057371;28;19908;-73
2023/09/29 01:47:23;;;;;;;;;;;17.10;99.90;;;;;;5072772;28;19949;-73
2023/09/29 01:49:48;;;;;;;;;;;17.10;99.90;;;;;;5057139;28;19909;-73
2023/09/29 01:52:14;;;;;;;;;;;17.10;99.90;;;;;;5057300;28;19916;-73
2023/09/29 01:54:39;;;;;;;;;;;17.10;99.90;;;;;;5089364;28;19920;-73
2023/09/29 01:57:05;;;;;;;;;;;17.20;99.90;;;;;;5072453;28;19939;-73
2023/09/29 01:59:31;;;;;;;;;;;17.20;99.90;;;;;;5057178;28;19920;-73
2023/09/29 02:01:56;;;;;;;;;;;17.20;99.90;;;;;;5055963;28;19916;-73
2023/09/29 02:04:22;;;;;;;;;;;17.20;99.90;;;;;;5056998;28;19915;-73
2023/09/29 02:06:50;;;;;;;;;;;17.20;99.90;;;;;;5056732;28;19909;-73
2023/09/29 02:09:16;;;;;;;;;;;17.10;99.90;;;;;;5056934;28;19912;-73
2023/09/29 02:11:44;;;;;;;;;;;17.10;99.90;;;;;;5057028;28;19913;-73
2023/09/29 02:14:09;;;;;;;;;;;17.00;99.90;;;;;;5055996;28;19908;-73
2023/09/29 02:16:35;;;;;;;;;;;17.00;99.90;;;;;;5056785;28;19942;-73
2023/09/29 02:19:01;;;;;;;;;;;17.00;99.90;;;;;;5056823;28;19916;-73
2023/09/29 02:21:28;;;;;;;;;;;17.00;99.90;;;;;;5056729;28;19908;-73
2023/09/29 02:23:55;;;;;;;;;;;16.90;99.90;;;;;;5054777;28;19920;-73
2023/09/29 02:26:22;;;;;;;;;;;17.00;99.90;;;;;;5071870;28;19913;-73
2023/09/29 02:28:48;;;;;;;;;;;16.90;99.90;;;;;;5054329;28;20510;-73
2023/09/29 02:31:14;;;;;;;;;;;16.90;99.90;;;;;;5055137;28;19908;-73
2023/09/29 02:33:40;;;;;;;;;;;16.80;99.90;;;;;;5055148;28;19909;-73
2023/09/29 02:36:09;;;;;;;;;;;16.80;99.90;;;;;;5056358;28;19958;-73
2023/09/29 02:38:36;;;;;;;;;;;16.70;99.90;;;;;;5056299;28;20007;-73
2023/09/29 02:41:02;;;;;;;;;;;16.70;99.90;;;;;;5056294;28;19917;-73
2023/09/29 02:43:29;;;;;;;;;;;16.70;99.90;;;;;;5071825;28;19935;-73
2023/09/29 02:45:55;;;;;;;;;;;16.70;99.90;;;;;;5056253;28;19916;-73
2023/09/29 02:48:20;;;;;;;;;;;16.60;99.90;;;;;;5056249;28;19912;-73
2023/09/29 02:50:46;;;;;;;;;;;16.60;99.90;;;;;;5055833;28;19913;-73
2023/09/29 02:53:11;;;;;;;;;;;16.60;99.90;;;;;;5087776;28;19925;-73
2023/09/29 02:55:37;;;;;;;;;;;16.60;99.90;;;;;;5056216;28;20303;-74
2023/09/29 02:58:03;;;;;;;;;;;16.60;99.90;;;;;;5088129;28;19917;-73
2023/09/29 03:00:29;;;;;;;;;;;16.60;99.90;;;;;;5054833;28;19963;-74
2023/09/29 03:02:54;;;;;;;;;;;16.60;99.90;;;;;;5054663;28;19908;-73
2023/09/29 03:05:21;;;;;;;;;;;16.60;99.90;;;;;;5055677;28;19959;-73
2023/09/29 03:07:46;;;;;;;;;;;16.60;99.90;;;;;;5056031;28;19962;-73
2023/09/29 03:10:12;;;;;;;;;;;16.50;99.90;;;;;;5054277;28;19912;-73
2023/09/29 03:12:38;;;;;;;;;;;16.50;99.90;;;;;;5056113;28;19920;-73
2023/09/29 03:15:08;;;;;;;;;;;16.60;99.90;;;;;;5055797;28;20312;-73
2023/09/29 03:17:34;;;;;;;;;;;16.50;99.90;;;;;;5054391;28;19951;-73
2023/09/29 03:19:59;;;;;;;;;;;16.50;99.90;;;;;;5055824;28;19909;-73
2023/09/29 03:22:25;;;;;;;;;;;16.40;99.90;;;;;;5054375;28;20387;-73
2023/09/29 03:24:51;;;;;;;;;;;16.40;99.90;;;;;;5055321;28;19916;-73
2023/09/29 03:27:17;;;;;;;;;;;16.40;99.90;;;;;;5055542;28;19994;-73
2023/09/29 03:29:43;;;;;;;;;;;16.30;99.90;;;;;;5054547;28;19974;-73
2023/09/29 03:32:09;;;;;;;;;;;16.30;99.90;;;;;;5055687;28;19913;-73
2023/09/29 03:34:34;;;;;;;;;;;16.30;99.90;;;;;;5054046;28;19921;-74
2023/09/29 03:37:00;;;;;;;;;;;16.20;99.90;;;;;;5055583;28;19912;-73
2023/09/29 03:39:25;;;;;;;;;;;16.20;99.90;;;;;;5070787;28;19908;-73
2023/09/29 03:41:51;;;;;;;;;;;16.20;99.90;;;;;;5055511;28;20334;-73
2023/09/29 03:44:16;;;;;;;;;;;16.20;99.90;;;;;;5055508;28;20475;-73
2023/09/29 03:46:43;;;;;;;;;;;16.10;99.90;;;;;;5055376;28;19928;-73
2023/09/29 03:49:12;;;;;;;;;;;16.20;99.90;;;;;;5055689;28;19920;-73
2023/09/29 03:51:38;;;;;;;;;;;16.10;99.90;;;;;;5087702;28;20559;-73
2023/09/29 03:54:04;;;;;;;;;;;16.10;99.90;;;;;;5055203;28;19995;-74
2023/09/29 03:56:29;;;;;;;;;;;16.10;99.90;;;;;;5055236;28;19988;-73
2023/09/29 03:58:58;;;;;;;;;;;16.10;99.90;;;;;;5055317;28;19908;-73
2023/09/29 04:01:25;;;;;;;;;;;16.10;99.90;;;;;;5055457;28;19920;-73
2023/09/29 04:03:50;;;;;;;;;;;16.00;99.90;;;;;;5055253;28;20377;-73
2023/09/29 04:06:16;;;;;;;;;;;16.00;99.90;;;;;;5054419;28;19931;-73
2023/09/29 04:08:41;;;;;;;;;;;16.00;99.90;;;;;;5067292;28;19913;-73
2023/09/29 04:11:07;;;;;;;;;;;15.90;99.90;;;;;;5046811;28;19916;-73
2023/09/29 04:13:33;;;;;;;;;;;15.90;99.90;;;;;;5087400;28;19931;-74
2023/09/29 04:16:02;;;;;;;;;;;15.90;99.90;;;;;;5055322;28;19991;-73
2023/09/29 04:18:28;;;;;;;;;;;15.90;99.90;;;;;;5067482;28;19920;-73
2023/09/29 04:20:53;;;;;;;;;;;15.80;99.90;;;;;;5051882;28;19913;-73
2023/09/29 04:23:19;;;;;;;;;;;15.80;99.90;;;;;;5054866;28;19913;-73
2023/09/29 04:25:45;;;;;;;;;;;15.70;99.90;;;;;;5055282;28;19909;-74
2023/09/29 04:28:10;;;;;;;;;;;15.70;99.90;;;;;;5053607;28;19944;-73
2023/09/29 04:30:35;;;;;;;;;;;15.70;99.90;;;;;;5055326;28;19913;-73
2023/09/29 04:33:01;;;;;;;;;;;15.70;99.90;;;;;;5053667;28;19916;-73
2023/09/29 04:35:27;;;;;;;;;;;15.60;99.90;;;;;;5055162;28;19911;-74
2023/09/29 04:37:52;;;;;;;;;;;15.60;99.90;;;;;;5055002;28;19987;-73
2023/09/29 04:40:18;;;;;;;;;;;15.60;99.90;;;;;;5058848;28;19932;-73
2023/09/29 04:42:43;;;;;;;;;;;15.60;99.90;;;;;;5058772;28;20339;-74
2023/09/29 04:45:09;;;;;;;;;;;15.60;99.90;;;;;;5058428;28;19999;-73
2023/09/29 04:47:35;;;;;;;;;;;15.60;99.90;;;;;;5058713;28;19913;-73
2023/09/29 04:50:00;;;;;;;;;;;15.60;99.90;;;;;;5057085;28;20382;-73
2023/09/29 04:52:26;;;;;;;;;;;15.60;99.90;;;;;;5058460;28;20003;-73
2023/09/29 04:54:52;;;;;;;;;;;15.50;99.90;;;;;;5058038;28;19923;-74
2023/09/29 04:57:18;;;;;;;;;;;15.50;99.90;;;;;;5058397;28;20016;-73
2023/09/29 04:59:43;;;;;;;;;;;15.50;99.90;;;;;;5058274;28;19912;-74
2023/09/29 05:02:09;;;;;;;;;;;15.50;99.90;;;;;;5058471;28;19908;-74
2023/09/29 05:04:34;;;;;;;;;;;15.50;99.90;;;;;;5058136;28;19909;-73
2023/09/29 05:07:00;;;;;;;;;;;15.40;99.90;;;;;;5090464;28;19919;-74
2023/09/29 05:09:25;;;;;;;;;;;15.40;99.90;;;;;;5057802;28;19916;-73
2023/09/29 05:11:51;;;;;;;;;;;15.40;99.90;;;;;;5057993;28;19913;-74
2023/09/29 05:14:17;;;;;;;;;;;15.40;99.90;;;;;;5056613;28;19913;-73
2023/09/29 05:16:42;;;;;;;;;;;15.30;99.90;;;;;;5058013;28;19920;-73
2023/09/29 05:19:08;;;;;;;;;;;15.30;99.90;;;;;;5089875;28;19934;-73
2023/09/29 05:21:34;;;;;;;;;;;15.30;99.90;;;;;;5057654;28;20297;-74
2023/09/29 05:24:00;;;;;;;;;;;15.30;99.90;;;;;;5057433;28;20284;-73
2023/09/29 05:26:25;;;;;;;;;;;15.20;99.90;;;;;;5057724;28;19913;-73
2023/09/29 05:28:53;;;;;;;;;;;15.20;99.90;;;;;;5056956;28;21642;-73
2023/09/29 05:31:19;;;;;;;;;;;15.20;99.90;;;;;;5057630;28;19913;-73
2023/09/29 05:33:44;;;;;;;;;;;15.20;99.90;;;;;;5057436;28;19955;-73
2023/09/29 05:36:10;;;;;;;;;;;15.20;99.90;;;;;;5057643;28;19909;-73
2023/09/29 05:38:36;;;;;;;;;;;15.20;99.90;;;;;;5057140;28;19960;-73
2023/09/29 05:41:01;;;;;;;;;;;15.20;99.90;;;;;;5057619;28;19917;-73
2023/09/29 05:43:27;;;;;;;;;;;15.20;99.90;;;;;;5057438;28;20384;-74
2023/09/29 05:45:52;;;;;;;;;;;15.30;99.90;;;;;;5056246;28;19920;-73
2023/09/29 05:48:18;;;;;;;;;;;15.30;99.90;;;;;;5057286;28;20067;-74
2023/09/29 05:50:44;;;;;;;;;;;15.30;99.90;;;;;;5057103;28;19913;-73
2023/09/29 05:53:11;;;;;;;;;;;15.30;99.90;;;;;;5057139;28;19909;-74
2023/09/29 05:55:37;;;;;;;;;;;15.30;99.90;;;;;;5057287;28;19909;-74
2023/09/29 05:58:02;;;;;;;;;;;15.30;99.90;;;;;;5057095;28;19923;-74
2023/09/29 06:00:28;;;;;;;;;;;15.30;99.90;;;;;;5057244;28;19917;-73
2023/09/29 06:02:53;;;;;;;;;;;15.40;99.90;;;;;;5057141;28;19919;-74
2023/09/29 06:05:19;;;;;;;;;;;15.40;99.90;;;;;;5056961;28;19915;-74
2023/09/29 06:07:45;;;;;;;;;;;15.40;99.90;;;;;;5056998;28;19996;-74
2023/09/29 06:10:11;;;;;;;;;;;15.40;99.90;;;;;;5056906;28;19915;-74
2023/09/29 06:12:37;;;;;;;;;;;15.40;99.90;;;;;;5055338;28;19920;-73
2023/09/29 06:15:03;;;;;;;;;;;15.40;99.90;;;;;;5056957;28;19948;-73
2023/09/29 06:17:32;;;;;;;;;;;15.40;99.90;;;;;;5056817;28;19968;-73
2023/09/29 06:19:57;;;;;;;;;;;15.40;99.90;;;;;;5056799;28;19913;-73
2023/09/29 06:22:24;;;;;;;;;;;15.50;99.90;;;;;;5088863;28;19909;-73
2023/09/29 06:24:49;;;;;;;;;;;15.50;99.90;;;;;;5055033;28;20377;-74
2023/09/29 06:27:15;;;;;;;;;;;15.60;99.90;;;;;;5056542;28;19921;-74
2023/09/29 06:29:40;;;;;;;;;;;15.60;99.90;;;;;;5056767;28;20296;-74
2023/09/29 06:32:08;;;;;;;;;;;15.70;99.90;;;;;;5056793;28;19931;-74
2023/09/29 06:34:34;;;;;;;;;;;15.70;99.90;;;;;;5056632;28;20003;-74
2023/09/29 06:37:00;;;;;;;;;;;15.80;99.90;;;;;;5055191;28;19959;-74
2023/09/29 06:39:26;;;;;;;;;;;15.80;99.90;;;;;;5056277;28;19908;-74
2023/09/29 06:41:51;;;;;;;;;;;15.90;99.90;;;;;;5056435;28;19958;-74
2023/09/29 06:44:17;;;;;;;;;;;16.00;99.90;;;;;;5056139;28;19992;-74
2023/09/29 06:46:43;;;;;;;;;;;16.10;99.90;;;;;;5055072;28;19963;-74
2023/09/29 06:49:08;;;;;;;;;;;16.20;99.90;;;;;;5056375;28;20014;-74
2023/09/29 06:51:34;;;;;;;;;;;16.30;99.90;;;;;;5056180;28;19987;-74
2023/09/29 06:54:00;;;;;;;;;;;16.50;99.90;;;;;;5055851;28;19909;-74
2023/09/29 06:56:25;;;;;;;;;;;16.80;99.90;;;;;;5056225;28;19912;-74
2023/09/29 06:58:51;;;;;;;;;;;17.10;99.90;;;;;;5056079;28;19908;-74
2023/09/29 07:01:17;;;;;;;;;;;17.30;99.90;;;;;;5071215;28;20050;-74
2023/09/29 07:03:45;;;;;;;;;;;17.60;99.90;;;;;;5056035;28;19971;-74
2023/09/29 07:06:10;;;;;;;;;;;17.80;99.90;;;;;;5056147;28;19908;-74
2023/09/29 07:08:36;;;;;;;;;;;18.00;99.90;;;;;;5055770;28;20269;-73
2023/09/29 07:11:02;;;;;;;;;;;18.20;99.90;;;;;;5056050;28;19912;-73
2023/09/29 07:13:27;;;;;;;;;;;18.30;99.90;;;;;;5054702;28;19917;-74
2023/09/29 07:15:53;;;;;;;;;;;18.50;99.90;;;;;;5055906;28;19916;-74
2023/09/29 07:18:21;;;;;;;;;;;18.70;99.90;;;;;;5051937;28;19917;-74
2023/09/29 07:20:50;;;;;;;;;;;18.80;99.90;;;;;;5055558;28;19912;-74
2023/09/29 07:23:16;;;;;;;;;;;19.00;99.90;;;;;;5055588;28;20340;-74
2023/09/29 07:25:41;;;;;;;;;;;19.20;99.90;;;;;;5054772;28;20012;-73
2023/09/29 07:28:13;;;;;;;;;;;19.30;99.90;;;;;;5055723;28;19932;-74
2023/09/29 07:30:40;;;;;;;;;;;19.40;99.90;;;;;;5078284;28;19920;-74
2023/09/29 07:33:06;;;;;;;;;;;19.50;99.90;;;;;;5055803;28;19938;-73
2023/09/29 07:35:31;;;;;;;;;;;19.60;99.90;;;;;;5055685;28;20451;-74
2023/09/29 07:37:58;;;;;;;;;;;19.70;99.90;;;;;;5055278;28;20368;-74
2023/09/29 07:40:24;;;;;;;;;;;19.80;99.90;;;;;;5055678;28;19913;-74
2023/09/29 07:42:49;;;;;;;;;;;19.90;99.90;;;;;;5054019;28;20378;-74
2023/09/29 07:45:15;;;;;;;;;;;19.90;99.90;;;;;;5055815;28;19913;-74
2023/09/29 07:47:41;;;;;;;;;;;20.00;99.90;;;;;;5069921;28;19975;-74
2023/09/29 07:50:07;;;;;;;;;;;20.10;99.90;;;;;;5055670;28;19909;-74
2023/09/29 07:52:37;;;;;;;;;;;20.10;99.90;;;;;;5055077;28;19923;-74
2023/09/29 07:55:03;;;;;;;;;;;20.20;99.90;;;;;;5055366;28;20417;-73
2023/09/29 07:57:28;;;;;;;;;;;20.30;99.90;;;;;;5055119;28;19977;-73
2023/09/29 07:59:54;;;;;;;;;;;20.40;99.90;;;;;;5069971;28;20000;-73
2023/09/29 08:02:19;;;;;;;;;;;20.50;99.90;;;;;;5055563;28;19963;-73
2023/09/29 08:04:45;;;;;;;;;;;20.60;99.90;;;;;;5055156;28;19912;-74
2023/09/29 08:07:12;;;;;;;;;;;20.60;99.90;;;;;;5067761;28;19913;-73
2023/09/29 08:09:37;;;;;;;;;;;20.60;99.90;;;;;;5051027;28;19908;-73
2023/09/29 08:12:03;;;;;;;;;;;20.80;99.90;;;;;;5055929;28;19920;-74
2023/09/29 08:14:30;;;;;;;;;;;20.90;99.90;;;;;;5057732;28;19920;-73
2023/09/29 08:16:55;;;;;;;;;;;20.90;99.90;;;;;;5057681;28;19944;-74
2023/09/29 08:19:21;;;;;;;;;;;21.00;99.90;;;;;;5059146;28;19917;-73
2023/09/29 08:21:48;;;;;;;;;;;21.00;99.90;;;;;;5059350;28;20333;-74
2023/09/29 08:24:13;;;;;;;;;;;21.20;99.90;;;;;;5090945;28;20403;-74
2023/09/29 08:26:39;;;;;;;;;;;21.30;99.90;;;;;;5058873;28;19928;-75
2023/09/29 08:29:06;;;;;;;;;;;21.30;99.90;;;;;;5057446;28;19916;-74
2023/09/29 08:31:32;;;;;;;;;;;21.30;99.90;;;;;;5057573;28;20017;-74
2023/09/29 08:33:57;;;;;;;;;;;21.30;99.90;;;;;;5058606;28;20455;-73
2023/09/29 08:36:23;;;;;;;;;;;21.40;99.90;;;;;;5074124;28;20333;-73
2023/09/29 08:38:48;;;;;;;;;;;21.40;99.90;;;;;;5072454;28;20361;-73
2023/09/29 08:41:14;;;;;;;;;;;21.40;99.90;;;;;;5058915;28;20327;-73
2023/09/29 08:43:42;;;;;;;;;;;21.50;99.90;;;;;;5058547;28;19909;-73
2023/09/29 08:46:09;;;;;;;;;;;21.50;99.90;;;;;;5057668;28;19913;-72
2023/09/29 08:48:35;;;;;;;;;;;21.60;99.90;;;;;;5074092;28;19913;-74
2023/09/29 08:51:02;;;;;;;;;;;21.70;99.90;;;;;;5070560;28;20352;-73
2023/09/29 08:53:28;;;;;;;;;;;21.80;99.90;;;;;;5073551;28;19920;-74
2023/09/29 08:55:54;;;;;;;;;;;21.90;99.90;;;;;;5058395;28;19909;-74
2023/09/29 08:58:20;;;;;;;;;;;22.00;99.90;;;;;;5057059;28;19916;-73
2023/09/29 09:00:46;;;;;;;;;;;22.20;99.90;;;;;;5090576;28;19916;-74
2023/09/29 09:03:11;;;;;;;;;;;22.20;99.90;;;;;;5058335;28;19972;-74
2023/09/29 09:05:37;;;;;;;;;;;22.30;99.90;;;;;;5056658;28;19948;-73
2023/09/29 09:08:03;;;;;;;;;;;22.40;99.90;;;;;;5073420;28;19913;-73
2023/09/29 09:10:35;;;;;;;;;;;22.50;99.90;;;;;;5058136;28;19909;-73
2023/09/29 09:13:01;;;;;;;;;;;22.60;99.90;;;;;;5056765;28;20026;-73
2023/09/29 09:15:27;;;;;;;;;;;22.70;99.90;;;;;;5056523;28;20322;-74
2023/09/29 09:17:53;;;;;;;;;;;22.80;99.90;;;;;;5073237;28;19917;-73
2023/09/29 09:20:19;;;;;;;;;;;22.90;99.90;;;;;;5056473;28;19925;-73
2023/09/29 09:22:56;;;;;;;;;;;22.90;99.90;;;;;;5057453;28;19916;-73
2023/09/29 09:25:35;;;;;;;;;;;23.00;99.90;;;;;;5057916;28;20281;-73
2023/09/29 09:28:05;;;;;;;;;;;23.00;99.90;;;;;;5056263;28;19932;-73
2023/09/29 09:30:36;;;;;;;;;;;23.00;99.90;;;;;;5057887;28;19909;-73
2023/09/29 09:33:02;;;;;;;;;;;23.00;99.90;;;;;;5057532;28;19952;-73
2023/09/29 09:35:29;;;;;;;;;;;23.00;99.90;;;;;;5056333;28;19916;-73
2023/09/29 09:37:59;;;;;;;;;;;23.10;99.90;;;;;;5057237;28;19917;-73
2023/09/29 09:40:25;;;;;;;;;;;23.10;99.90;;;;;;5057685;28;19916;-73
2023/09/29 09:42:53;;;;;;;;;;;23.10;99.90;;;;;;5056099;28;19908;-73
2023/09/29 09:45:19;;;;;;;;;;;23.20;99.90;;;;;;5057644;28;19931;-73
2023/09/29 09:47:46;;;;;;;;;;;23.40;99.90;;;;;;5057482;28;19908;-73
2023/09/29 09:50:13;;;;;;;;;;;23.60;99.90;;;;;;5057190;28;19935;-73
2023/09/29 09:52:39;;;;;;;;;;;23.60;99.90;;;;;;5057217;28;19919;-73
2023/09/29 09:55:12;;;;;;;;;;;23.70;99.90;;;;;;5057219;28;19909;-73
2023/09/29 09:57:41;;;;;;;;;;;23.80;99.90;;;;;;5057041;28;19939;-73
2023/09/29 10:00:10;;;;;;;;;;;23.80;99.90;;;;;;5055800;28;20003;-74
2023/09/29 10:02:51;;;;;;;;;;;23.90;99.90;;;;;;5055884;28;19916;-73
2023/09/29 10:05:24;;;;;;;;;;;24.00;99.90;;;;;;5056845;28;19909;-73
2023/09/29 10:07:51;;;;;;;;;;;24.00;99.90;;;;;;5056911;28;19913;-73
2023/09/29 10:10:23;;;;;;;;;;;24.10;99.90;;;;;;5056835;28;19909;-73
2023/09/29 10:12:52;;;;;;;;;;;24.20;99.90;;;;;;5057147;28;19909;-73
2023/09/29 10:15:18;;;;;;;;;;;24.20;99.90;;;;;;5056835;28;19909;-73
2023/09/29 10:17:44;;;;;;;;;;;24.30;99.90;;;;;;5056947;28;19999;-72
2023/09/29 10:20:22;;;;;;;;;;;24.30;99.90;;;;;;5054400;28;19909;-73
2023/09/29 10:22:54;;;;;;;;;;;24.40;99.90;;;;;;5056602;28;20063;-72
2023/09/29 10:25:20;;;;;;;;;;;24.40;99.90;;;;;;5055397;28;20285;-73
2023/09/29 10:27:51;;;;;;;;;;;24.50;99.90;;;;;;5056668;28;19955;-73
2023/09/29 10:30:17;;;;;;;;;;;24.40;99.90;;;;;;5056800;28;20034;-73
2023/09/29 10:32:47;;;;;;;;;;;24.40;99.90;;;;;;5056598;28;19956;-73
2023/09/29 10:35:18;;;;;;;;;;;24.50;99.90;;;;;;5055853;28;20365;-73
2023/09/29 10:37:45;;;;;;;;;;;24.50;99.90;;;;;;5056129;28;19919;-73
2023/09/29 10:40:28;;;;;;;;;;;24.60;99.90;;;;;;5055638;28;19913;-72
2023/09/29 10:42:56;;;;;;;;;;;24.60;99.90;;;;;;5056639;28;19986;-72
2023/09/29 10:45:25;;;;;;;;;;;24.70;99.90;;;;;;5056554;28;20280;-72
2023/09/29 10:47:53;;;;;;;;;;;24.80;99.90;;;;;;5055109;28;19935;-73
2023/09/29 10:50:19;;;;;;;;;;;24.80;99.90;;;;;;5056153;28;19948;-72
2023/09/29 10:52:45;;;;;;;;;;;24.80;99.90;;;;;;5068133;28;19909;-73
2023/09/29 10:55:14;;;;;;;;;;;24.90;99.90;;;;;;5056041;28;19917;-73
2023/09/29 10:57:42;;;;;;;;;;;25.10;99.90;;;;;;5055939;28;20345;-73
2023/09/29 11:00:09;;;;;;;;;;;25.10;99.90;;;;;;5056044;28;19959;-73
2023/09/29 11:02:36;;;;;;;;;;;25.10;99.90;;;;;;5056171;28;20015;-73
2023/09/29 11:05:07;;;;;;;;;;;25.10;99.90;;;;;;5055948;28;19913;-73
2023/09/29 11:07:50;;;;;;;;;;;25.10;99.90;;;;;;5054553;28;20448;-72
2023/09/29 11:10:19;;;;;;;;;;;25.20;99.90;;;;;;5053261;28;19922;-73
2023/09/29 11:12:47;;;;;;;;;;;25.40;99.90;;;;;;5054738;28;20035;-73
2023/09/29 11:15:16;;;;;;;;;;;25.50;99.90;;;;;;5049899;28;19955;-72
2023/09/29 11:17:44;;;;;;;;;;;25.60;99.90;;;;;;5055441;28;19943;-74
2023/09/29 11:20:25;;;;;;;;;;;25.60;99.90;;;;;;5055217;28;20444;-73
2023/09/29 11:23:01;;;;;;;;;;;25.60;99.90;;;;;;5054050;28;19913;-75
2023/09/29 11:25:26;;;;;;;;;;;25.60;99.90;;;;;;5053901;28;20391;-76
2023/09/29 11:27:52;;;;;;;;;;;25.70;99.90;;;;;;5055557;28;19928;-75
2023/09/29 11:30:24;;;;;;;;;;;25.80;99.90;;;;;;5055449;28;19955;-74
2023/09/29 11:32:53;;;;;;;;;;;25.80;99.90;;;;;;5054252;28;19919;-74
2023/09/29 11:35:21;;;;;;;;;;;25.80;99.90;;;;;;5060616;28;19908;-72
2023/09/29 11:37:47;;;;;;;;;;;25.80;99.90;;;;;;5055296;28;19944;-72
2023/09/29 11:40:13;;;;;;;;;;;25.90;99.90;;;;;;5054490;28;19923;-73
2023/09/29 11:42:39;;;;;;;;;;;26.00;99.90;;;;;;5055629;28;19908;-72
2023/09/29 11:45:08;;;;;;;;;;;25.90;99.90;;;;;;5055549;28;20654;-72
2023/09/29 11:47:37;;;;;;;;;;;26.00;99.90;;;;;;5058822;28;19909;-72
2023/09/29 11:50:02;;;;;;;;;;;26.00;99.90;;;;;;5058127;28;19915;-73
2023/09/29 11:52:28;;;;;;;;;;;26.00;99.90;;;;;;5059495;28;20003;-72
2023/09/29 11:54:53;;;;;;;;;;;26.00;99.90;;;;;;5059721;28;19955;-72
2023/09/29 11:57:20;;;;;;;;;;;26.10;99.90;;;;;;5059630;28;19962;-72
2023/09/29 11:59:45;;;;;;;;;;;26.20;99.90;;;;;;5059512;28;19913;-72
2023/09/29 12:02:11;;;;;;;;;;;26.20;99.90;;;;;;5059353;28;19920;-73
2023/09/29 12:04:36;;;;;;;;;;;26.30;99.90;;;;;;5057849;28;19920;-74
2023/09/29 12:07:05;;;;;;;;;;;26.30;99.90;;;;;;5059350;28;20331;-73
2023/09/29 12:09:30;;;;;;;;;;;26.40;99.90;;;;;;5057651;28;20395;-73
2023/09/29 12:12:00;;;;;;;;;;;26.50;99.90;;;;;;5059234;28;19971;-73
2023/09/29 12:14:26;;;;;;;;;;;26.70;99.90;;;;;;5059223;28;19958;-74
2023/09/29 12:16:53;;;;;;;;;;;26.70;99.90;;;;;;5059140;28;19912;-73
2023/09/29 12:19:20;;;;;;;;;;;26.70;99.90;;;;;;5074929;28;19932;-72
2023/09/29 12:21:47;;;;;;;;;;;26.90;99.90;;;;;;5058790;28;19909;-72
2023/09/29 12:24:13;;;;;;;;;;;26.90;99.90;;;;;;5059031;28;19936;-72
2023/09/29 12:26:39;;;;;;;;;;;26.90;99.90;;;;;;5058877;28;20442;-73
2023/09/29 12:29:05;;;;;;;;;;;26.90;99.90;;;;;;5058896;28;19924;-73
2023/09/29 12:31:31;;;;;;;;;;;27.00;99.90;;;;;;5058994;28;19958;-74
2023/09/29 12:33:56;;;;;;;;;;;27.10;99.90;;;;;;5058946;28;20373;-73
2023/09/29 12:36:22;;;;;;;;;;;27.10;99.90;;;;;;5058657;28;19917;-73
2023/09/29 12:38:48;;;;;;;;;;;27.10;99.90;;;;;;5058562;28;19921;-73
2023/09/29 12:41:15;;;;;;;;;;;27.20;99.90;;;;;;5058857;28;19970;-74
2023/09/29 12:43:41;;;;;;;;;;;27.40;99.90;;;;;;5057329;28;19980;-74
2023/09/29 12:46:06;;;;;;;;;;;27.30;99.90;;;;;;5058427;28;19912;-73
2023/09/29 12:48:32;;;;;;;;;;;27.30;99.90;;;;;;5090956;28;19983;-73
2023/09/29 12:50:57;;;;;;;;;;;27.40;99.90;;;;;;5048133;28;19913;-74
2023/09/29 12:53:23;;;;;;;;;;;27.30;99.90;;;;;;5058499;28;19913;-73
2023/09/29 12:55:48;;;;;;;;;;;27.30;99.90;;;;;;5058280;28;19916;-74
2023/09/29 12:58:14;;;;;;;;;;;27.30;99.90;;;;;;5057742;28;19913;-74
2023/09/29 13:00:40;;;;;;;;;;;27.40;99.90;;;;;;5058424;28;19942;-74
2023/09/29 13:03:05;;;;;;;;;;;27.40;99.90;;;;;;5058373;28;19913;-74
2023/09/29 13:05:32;;;;;;;;;;;27.40;99.90;;;;;;5058183;28;20277;-74
2023/09/29 13:07:58;;;;;;;;;;;27.50;99.90;;;;;;5058196;28;19916;-74
2023/09/29 13:10:24;;;;;;;;;;;27.60;99.90;;;;;;5058142;28;19970;-74
2023/09/29 13:12:51;;;;;;;;;;;27.80;99.90;;;;;;5058156;28;19909;-75
2023/09/29 13:15:17;;;;;;;;;;;27.80;99.90;;;;;;5089815;28;20361;-73
2023/09/29 13:17:42;;;;;;;;;;;27.80;99.90;;;;;;5090150;28;19916;-74
2023/09/29 13:20:10;;;;;;;;;;;27.80;99.90;;;;;;5051562;28;20285;-73
2023/09/29 13:22:35;;;;;;;;;;;27.80;99.90;;;;;;5038094;28;20373;-74
2023/09/29 13:25:02;;;;;;;;;;;27.80;99.90;;;;;;5052803;28;19967;-74
2023/09/29 13:27:27;;;;;;;;;;;27.90;99.90;;;;;;5088808;28;19921;-74
2023/09/29 13:29:53;;;;;;;;;;;28.10;99.90;;;;;;5057847;28;20645;-74
2023/09/29 13:32:19;;;;;;;;;;;28.10;99.90;;;;;;5049580;28;20010;-74
2023/09/29 13:34:44;;;;;;;;;;;28.20;99.90;;;;;;5054201;28;20042;-75
2023/09/29 18:31:05;;;;;;;;;;;23.90;99.90;;;;;;5097036;28;20372;-72
2023/09/29 18:33:30;;;;;;;;;;;23.80;99.90;;;;;;5075216;28;19923;-72
2023/09/29 18:35:56;;;;;;;;;;;23.90;99.90;;;;;;5075963;28;20367;-72
2023/09/29 18:38:21;;;;;;;;;;;23.90;99.90;;;;;;5071639;28;20392;-72
2023/09/29 18:40:47;;;;;;;;;;;23.90;99.90;;;;;;5075023;28;19920;-72
2023/09/29 18:43:12;;;;;;;;;;;23.90;99.90;;;;;;5076842;28;19933;-72
2023/09/29 18:45:38;;;;;;;;;;;23.90;99.90;;;;;;5074953;28;19909;-73
2023/09/29 18:48:04;;;;;;;;;;;23.90;99.90;;;;;;5084815;28;19924;-72
2023/09/29 18:50:32;;;;;;;;;;;23.80;99.90;;;;;;5088311;28;19948;-72
2023/09/29 18:52:58;;;;;;;;;;;23.80;99.90;;;;;;5087219;28;19912;-72
2023/09/29 18:55:24;;;;;;;;;;;23.70;99.90;;;;;;5090259;28;19916;-72
2023/09/29 18:57:49;;;;;;;;;;;23.70;99.90;;;;;;5094288;28;20307;-73
2023/09/29 19:00:15;;;;;;;;;;;23.70;99.90;;;;;;5092643;28;19918;-72
2023/09/29 19:02:43;;;;;;;;;;;23.60;99.90;;;;;;5090713;28;19912;-73
2023/09/29 19:05:08;;;;;;;;;;;23.60;99.90;;;;;;5084286;28;20315;-73
2023/09/29 19:07:34;;;;;;;;;;;23.60;99.90;;;;;;5083956;28;20276;-73